Startpagina
METAR-TAF:

METAR-TAF

Vliegvelden :

Helsinki, Finland

Luchthaven Helsinki-Vantaa

breedte: 60-19N, lengte: 024-58E, hoogte: 51 m

Actueel weer

Dit bericht is 11 minuten geleden gemaakt, om 08:50 UTC
Wind 8 kt uit het oostnoordoosten
Temperatuur 14°C
Vochtigheid 82%
Druk 1030 hPa
Zicht 10 km of meer
Verspreide wolken op 900 ft

METAR: EFHK 230850Z 07008KT 9999 SCT009 14/11 Q1030 NOSIG

Tijdstip: 12:01 (09:01 UTC)

Verwachting

Dit bericht is 34 minuten geleden gemaakt, om 08:27 UTC
Verwachting geldig van 23 om 09 UTC tot 24 om 09 UTC
Wind 9 kt uit het oosten
Zicht 10 km of meer
Gebroken wolken op 900 ft
Wijzigt naar
van 23 om 09 UTC tot 23 om 10 UTC
Weinig wolken op 1200 ft

TAF: EFHK 230827Z 2309/2409 08009KT 9999 BKN009 BECMG 2309/2310 FEW012

Waarnemingen en weersverwachtingen van meer dan 4000 vliegvelden (METAR en TAF).

De beschikbare stations zijn de gele en rode punten op de kaart.

Ga met uw muis naar het station om de naam te zien.

Klik dan om waarnemingen en weersverwachtingen te zien.

kaart wijzigen: klik op de groene knoppen met een zwart kruis om in te zoomen, op de groene knop met een streepje om uit te zoomen of op de groene pijlen voor aangrenzende kaarten.


METAR-TAF: